Terminal Aerodrome Forecast
Issued by NWS

Home | Current Version | Previous Version | Text Only | Print | Product List | Glossary On
Versions: 1 2 3 4 5 6 7 8 9 10 11 12 13 14 15 16 17 18 19 20 21 22 23 24 25 26 27 28 29 30 31 32
000
FTUS41 KGYX 222320
TAFLEB
TAF
KLEB 222320Z 2300/2324 01009KT 5SM -RADZ OVC022
     FM231400 36012G22KT 2SM RA BR OVC005=

USA.gov is the U.S. government's official web portal to all federal, state and local government web resources and services.